Time;durP1;ratioP1;P1;durP2;ratioP2;P2;SDS_P1;SDS_P2;PMS_P1;PMS_P2;Temp;Humidity;BMP_temperature;BMP_pressure;BME280_temperature;BME280_humidity;BME280_pressure;Samples;Min_cycle;Max_cycle;Signal;HPM_P1;HPM_P2
2024/03/07 00:00:56;;;;;;;15.50;6.53;;;4.10;99.90;;;;;;5065137;28;20021;-54
2024/03/07 00:03:24;;;;;;;12.98;7.05;;;4.10;99.90;;;;;;5065120;28;20092;-52
2024/03/07 00:05:50;;;;;;;16.27;7.40;;;4.10;99.90;;;;;;5066887;28;20206;-52
2024/03/07 00:08:15;;;;;;;10.55;7.15;;;4.10;99.90;;;;;;5068921;28;20120;-53
2024/03/07 00:10:43;;;;;;;13.73;7.60;;;4.10;99.90;;;;;;5068948;28;20039;-54
2024/03/07 00:13:09;;;;;;;15.50;6.82;;;4.00;99.90;;;;;;5069191;28;20176;-54
2024/03/07 00:15:35;;;;;;;14.02;6.78;;;4.00;99.90;;;;;;5068880;28;20024;-54
2024/03/07 00:18:01;;;;;;;12.43;6.57;;;4.00;99.90;;;;;;5068378;28;20029;-53
2024/03/07 00:20:27;;;;;;;18.15;6.40;;;4.00;99.90;;;;;;5068346;28;20028;-54
2024/03/07 00:22:52;;;;;;;14.23;6.88;;;4.00;99.90;;;;;;5068684;28;20025;-54
2024/03/07 00:25:19;;;;;;;15.32;6.80;;;3.90;99.90;;;;;;5068407;28;20036;-54
2024/03/07 00:27:45;;;;;;;13.82;6.38;;;4.00;99.90;;;;;;5068354;28;20282;-52
2024/03/07 00:30:13;;;;;;;12.55;6.57;;;3.90;99.90;;;;;;5068529;28;20092;-54
2024/03/07 00:32:39;;;;;;;12.60;5.97;;;4.00;99.90;;;;;;5068555;28;20029;-54
2024/03/07 00:35:08;;;;;;;10.95;5.97;;;3.90;99.90;;;;;;5068552;28;20067;-54
2024/03/07 00:37:34;;;;;;;11.23;6.28;;;3.90;99.90;;;;;;5068376;28;20036;-52
2024/03/07 00:40:00;;;;;;;13.63;6.88;;;3.80;99.90;;;;;;5067408;28;20048;-54
2024/03/07 00:42:27;;;;;;;20.92;7.40;;;3.90;99.90;;;;;;5068370;28;20033;-52
2024/03/07 00:44:52;;;;;;;11.93;7.22;;;3.80;99.90;;;;;;5068216;28;20041;-54
2024/03/07 00:47:18;;;;;;;13.98;6.55;;;3.80;99.90;;;;;;5068133;28;20033;-54
2024/03/07 00:49:46;;;;;;;14.95;6.93;;;3.80;99.90;;;;;;5068367;28;20047;-53
2024/03/07 00:52:12;;;;;;;11.40;6.68;;;3.70;99.90;;;;;;5067693;28;20241;-53
2024/03/07 00:54:38;;;;;;;12.07;7.03;;;3.70;99.90;;;;;;5068087;28;20028;-54
2024/03/07 00:57:04;;;;;;;13.65;6.70;;;3.70;99.90;;;;;;5068022;28;20068;-54
2024/03/07 00:59:30;;;;;;;13.88;7.93;;;3.70;99.90;;;;;;5066791;28;20025;-53
2024/03/07 01:01:55;;;;;;;13.95;6.97;;;3.60;99.90;;;;;;5067882;28;20059;-53
2024/03/07 01:04:22;;;;;;;13.50;7.47;;;3.70;99.90;;;;;;5067869;28;20290;-54
2024/03/07 01:06:48;;;;;;;14.95;7.30;;;3.60;99.90;;;;;;5067255;28;20093;-54
2024/03/07 01:09:14;;;;;;;13.10;6.93;;;3.60;99.90;;;;;;5067478;28;20029;-54
2024/03/07 01:11:43;;;;;;;12.48;6.70;;;3.60;99.90;;;;;;5067644;28;20044;-54
2024/03/07 01:14:09;;;;;;;14.10;7.82;;;3.60;99.90;;;;;;5066505;28;20021;-53
2024/03/07 01:16:35;;;;;;;14.13;7.57;;;3.60;99.90;;;;;;5067609;28;20033;-53
2024/03/07 01:19:01;;;;;;;13.57;7.57;;;3.60;99.90;;;;;;5067119;28;20368;-54
2024/03/07 01:21:26;;;;;;;15.95;7.20;;;3.50;99.90;;;;;;5067104;28;20096;-53
2024/03/07 01:23:52;;;;;;;13.10;6.80;;;3.60;99.90;;;;;;5067532;28;20021;-54
2024/03/07 01:26:18;;;;;;;15.18;6.85;;;3.60;99.90;;;;;;5067493;28;20067;-54
2024/03/07 01:28:43;;;;;;;13.95;7.68;;;3.50;99.90;;;;;;5067304;28;20097;-54
2024/03/07 01:31:10;;;;;;;12.98;6.68;;;3.50;99.90;;;;;;5067458;28;20337;-51
2024/03/07 01:33:36;;;;;;;13.73;7.10;;;3.50;99.90;;;;;;5067043;28;20139;-54
2024/03/07 01:36:01;;;;;;;15.65;8.75;;;3.50;99.90;;;;;;5067155;28;20333;-54
2024/03/07 01:38:27;;;;;;;15.65;7.50;;;3.50;99.90;;;;;;5066688;28;20086;-54
2024/03/07 01:40:54;;;;;;;12.85;7.15;;;3.50;99.90;;;;;;5067063;28;20044;-54
2024/03/07 01:43:21;;;;;;;15.82;7.57;;;3.50;99.90;;;;;;5067034;28;20048;-53
2024/03/07 01:45:47;;;;;;;13.88;7.07;;;3.40;99.90;;;;;;5066894;28;20025;-54
2024/03/07 01:48:13;;;;;;;12.48;7.45;;;3.40;99.90;;;;;;5065987;28;20029;-53
2024/03/07 01:50:38;;;;;;;12.75;7.53;;;3.40;99.90;;;;;;5066012;28;20036;-53
2024/03/07 01:53:06;;;;;;;12.98;7.32;;;3.40;99.90;;;;;;5066796;28;20024;-53
2024/03/07 01:55:32;;;;;;;17.42;7.38;;;3.40;99.90;;;;;;5065705;28;20036;-53
2024/03/07 01:57:59;;;;;;;13.98;7.40;;;3.40;99.90;;;;;;5066582;28;20316;-53
2024/03/07 02:00:25;;;;;;;16.20;6.68;;;3.40;99.90;;;;;;5066869;28;20028;-55
2024/03/07 02:02:53;;;;;;;12.10;6.55;;;3.30;99.90;;;;;;5066711;28;20028;-52
2024/03/07 02:05:18;;;;;;;11.95;6.85;;;3.30;99.90;;;;;;5066320;28;20107;-54
2024/03/07 02:07:44;;;;;;;14.82;7.57;;;3.30;99.90;;;;;;5066494;28;20017;-51
2024/03/07 02:10:10;;;;;;;14.10;6.88;;;3.30;99.90;;;;;;5066699;28;20043;-53
2024/03/07 02:12:36;;;;;;;16.52;7.30;;;3.20;99.90;;;;;;5066575;28;20175;-48
2024/03/07 02:15:02;;;;;;;17.02;7.22;;;3.20;99.90;;;;;;5066588;28;20045;-47
2024/03/07 02:17:28;;;;;;;15.60;6.90;;;3.20;99.90;;;;;;5066412;28;20033;-47
2024/03/07 02:19:53;;;;;;;13.18;6.38;;;3.20;99.90;;;;;;5066057;28;20048;-47
2024/03/07 02:22:19;;;;;;;14.13;6.85;;;3.20;99.90;;;;;;5066412;28;20060;-48
2024/03/07 02:24:46;;;;;;;13.00;7.28;;;3.10;99.90;;;;;;5066397;28;20036;-47
2024/03/07 02:27:12;;;;;;;14.90;6.70;;;3.20;99.90;;;;;;5066051;28;20071;-48
2024/03/07 02:29:37;;;;;;;18.50;7.35;;;3.20;99.90;;;;;;5065005;28;20054;-47
2024/03/07 02:32:03;;;;;;;14.52;6.55;;;3.20;99.90;;;;;;5066392;28;20056;-48
2024/03/07 02:34:29;;;;;;;12.68;6.60;;;3.20;99.90;;;;;;5066091;28;20033;-47
2024/03/07 02:36:55;;;;;;;14.82;6.72;;;3.10;99.90;;;;;;5066227;28;20052;-49
2024/03/07 02:39:21;;;;;;;11.27;6.65;;;3.20;99.90;;;;;;5065839;28;20113;-46
2024/03/07 02:41:50;;;;;;;12.80;6.25;;;3.10;99.90;;;;;;5065854;28;20070;-47
2024/03/07 02:44:16;;;;;;;14.53;6.93;;;3.10;99.90;;;;;;5064999;28;20056;-46
2024/03/07 02:46:41;;;;;;;11.50;6.20;;;3.10;99.90;;;;;;5066011;28;20017;-47
2024/03/07 02:49:07;;;;;;;12.90;6.85;;;3.00;99.90;;;;;;5065571;28;20032;-47
2024/03/07 02:51:33;;;;;;;12.30;6.10;;;3.00;99.90;;;;;;5065665;28;20025;-47
2024/03/07 02:53:58;;;;;;;13.77;6.72;;;3.00;99.90;;;;;;5065674;28;20036;-47
2024/03/07 02:56:27;;;;;;;11.93;6.40;;;3.00;99.90;;;;;;5065832;28;20396;-46
2024/03/07 02:58:53;;;;;;;13.50;6.18;;;3.00;99.90;;;;;;5065824;28;20033;-46
2024/03/07 03:01:19;;;;;;;10.13;6.03;;;2.90;99.90;;;;;;5065602;28;20033;-46
2024/03/07 03:03:44;;;;;;;11.52;6.10;;;2.90;99.90;;;;;;5065652;28;20021;-47
2024/03/07 03:06:11;;;;;;;12.02;6.50;;;3.00;99.90;;;;;;5065683;28;20043;-47
2024/03/07 03:08:36;;;;;;;13.27;6.78;;;2.90;99.90;;;;;;5065589;28;20283;-47
2024/03/07 03:11:03;;;;;;;13.35;6.25;;;2.90;99.90;;;;;;5065611;28;20104;-47
2024/03/07 03:13:29;;;;;;;12.60;6.47;;;2.90;99.90;;;;;;5065560;28;20091;-47
2024/03/07 03:15:58;;;;;;;8.30;6.13;;;2.90;99.90;;;;;;5065448;28;20033;-49
2024/03/07 03:18:24;;;;;;;13.20;6.38;;;2.90;99.90;;;;;;5064264;28;20310;-47
2024/03/07 03:20:50;;;;;;;14.70;6.35;;;2.90;99.90;;;;;;5065576;28;20086;-46
2024/03/07 03:23:15;;;;;;;13.57;6.05;;;2.90;99.90;;;;;;5065122;28;20029;-47
2024/03/07 03:25:41;;;;;;;11.45;5.85;;;2.80;99.90;;;;;;5065506;28;20082;-47
2024/03/07 03:28:10;;;;;;;11.07;6.18;;;2.90;99.90;;;;;;5065465;28;20024;-46
2024/03/07 03:30:39;;;;;;;12.73;6.38;;;2.80;99.90;;;;;;5064884;28;20195;-47
2024/03/07 03:33:08;;;;;;;15.00;6.35;;;2.80;99.90;;;;;;5065430;28;20185;-46
2024/03/07 03:35:37;;;;;;;11.00;6.00;;;2.80;99.90;;;;;;5065388;28;20270;-47
2024/03/07 03:38:03;;;;;;;10.95;5.57;;;2.80;99.90;;;;;;5065319;28;20044;-47
2024/03/07 03:40:28;;;;;;;10.05;5.45;;;2.80;99.90;;;;;;5066620;28;20040;-46
2024/03/07 03:42:54;;;;;;;10.52;6.53;;;2.80;99.90;;;;;;5069416;28;20033;-47
2024/03/07 03:45:20;;;;;;;12.30;6.47;;;2.80;99.90;;;;;;5069206;28;20108;-46
2024/03/07 03:47:45;;;;;;;12.18;6.13;;;2.70;99.90;;;;;;5068014;28;20029;-47
2024/03/07 03:50:12;;;;;;;12.50;5.75;;;2.70;99.90;;;;;;5069166;28;20087;-47
2024/03/07 03:52:39;;;;;;;10.07;5.60;;;2.70;99.90;;;;;;5069260;28;20036;-47
2024/03/07 03:55:14;;;;;;;12.98;6.55;;;2.80;99.90;;;;;;5069215;28;20032;-48
2024/03/07 03:57:41;;;;;;;10.13;6.30;;;2.80;99.90;;;;;;5069258;28;20052;-46
2024/03/07 04:00:12;;;;;;;11.93;6.40;;;2.80;99.90;;;;;;5068827;28;20242;-46
2024/03/07 04:02:41;;;;;;;14.27;5.65;;;2.80;99.90;;;;;;5068561;28;20025;-46
2024/03/07 04:05:09;;;;;;;12.27;6.17;;;2.80;99.90;;;;;;5068593;28;20185;-46
2024/03/07 04:07:35;;;;;;;9.73;5.65;;;2.70;99.90;;;;;;5067974;28;20110;-47
2024/03/07 04:10:03;;;;;;;12.75;6.40;;;2.70;99.90;;;;;;5068691;28;20096;-46
2024/03/07 04:12:28;;;;;;;14.52;6.20;;;2.70;99.90;;;;;;5068854;28;20036;-46
2024/03/07 04:14:57;;;;;;;11.07;5.45;;;2.70;99.90;;;;;;5068751;28;20053;-47
2024/03/07 04:17:22;;;;;;;9.77;5.55;;;2.70;99.90;;;;;;5068867;28;20032;-47
2024/03/07 04:19:48;;;;;;;10.00;5.50;;;2.70;99.90;;;;;;5068280;28;20210;-47
2024/03/07 04:22:13;;;;;;;13.55;6.13;;;2.60;99.90;;;;;;5068611;28;20037;-46
2024/03/07 04:24:40;;;;;;;12.55;6.25;;;2.60;99.90;;;;;;5068706;28;20024;-46
2024/03/07 04:27:06;;;;;;;10.85;5.70;;;2.60;99.90;;;;;;5068552;28;20107;-47
2024/03/07 04:29:32;;;;;;;11.82;5.75;;;2.60;99.90;;;;;;5068351;28;20032;-47
2024/03/07 04:31:58;;;;;;;11.57;6.32;;;2.60;99.90;;;;;;5067351;28;20021;-46
2024/03/07 04:34:24;;;;;;;12.65;5.95;;;2.60;99.90;;;;;;5068448;28;20028;-47
2024/03/07 04:36:50;;;;;;;14.60;6.20;;;2.60;99.90;;;;;;5068279;28;20044;-48
2024/03/07 04:39:27;;;;;;;13.30;5.60;;;2.60;99.90;;;;;;5068106;28;20032;-46
2024/03/07 04:41:56;;;;;;;12.73;5.63;;;2.50;99.90;;;;;;5068128;28;20174;-47
2024/03/07 04:44:22;;;;;;;10.80;5.45;;;2.50;99.90;;;;;;5068317;28;20052;-47
2024/03/07 04:46:49;;;;;;;10.75;6.05;;;2.50;99.90;;;;;;5068174;28;20051;-47
2024/03/07 04:49:15;;;;;;;11.80;5.85;;;2.50;99.90;;;;;;5067700;28;20037;-47
2024/03/07 04:51:41;;;;;;;12.32;6.57;;;2.50;99.90;;;;;;5067504;28;20291;-47
2024/03/07 04:54:06;;;;;;;10.85;6.10;;;2.50;99.90;;;;;;5067880;28;20040;-46
2024/03/07 04:56:32;;;;;;;9.18;5.80;;;2.50;99.90;;;;;;5067981;28;20029;-47
2024/03/07 04:58:58;;;;;;;10.82;5.78;;;2.50;99.90;;;;;;5067840;28;20037;-48
2024/03/07 05:01:24;;;;;;;10.82;6.07;;;2.50;99.90;;;;;;5066672;28;20198;-47
2024/03/07 05:03:52;;;;;;;12.27;5.85;;;2.50;99.90;;;;;;5067598;28;20024;-47
2024/03/07 05:06:18;;;;;;;9.73;5.97;;;2.50;99.90;;;;;;5067889;28;20028;-47
2024/03/07 05:08:44;;;;;;;11.40;6.40;;;2.50;99.90;;;;;;5067763;28;20091;-48
2024/03/07 05:11:10;;;;;;;12.75;5.63;;;2.50;99.90;;;;;;5067322;28;20067;-46
2024/03/07 05:13:37;;;;;;;12.30;6.70;;;2.50;99.90;;;;;;5067810;28;20356;-46
2024/03/07 05:16:02;;;;;;;11.82;6.47;;;2.40;99.90;;;;;;5067556;28;20195;-47
2024/03/07 05:18:28;;;;;;;13.82;6.88;;;2.40;99.90;;;;;;5067127;28;20049;-47
2024/03/07 05:20:54;;;;;;;12.15;5.90;;;2.40;99.90;;;;;;5067552;28;20074;-46
2024/03/07 05:23:20;;;;;;;10.38;6.13;;;2.40;99.90;;;;;;5067100;28;20106;-46
2024/03/07 05:25:46;;;;;;;11.90;5.95;;;2.40;99.90;;;;;;5067457;28;20021;-46
2024/03/07 05:28:12;;;;;;;12.05;6.72;;;2.30;99.90;;;;;;5067973;28;20071;-46
2024/03/07 05:30:37;;;;;;;11.75;6.60;;;2.30;99.90;;;;;;5067452;28;20025;-47
2024/03/07 05:33:04;;;;;;;13.95;6.80;;;2.30;99.90;;;;;;5067325;28;20036;-46
2024/03/07 05:35:29;;;;;;;15.10;7.32;;;2.30;99.90;;;;;;5067191;28;20059;-47
2024/03/07 05:37:56;;;;;;;11.70;6.35;;;2.30;99.90;;;;;;5067056;28;20037;-47
2024/03/07 05:40:22;;;;;;;12.65;6.63;;;2.30;99.90;;;;;;5067093;28;20025;-47
2024/03/07 05:42:48;;;;;;;11.98;6.93;;;2.30;99.90;;;;;;5067099;28;20021;-47
2024/03/07 05:45:15;;;;;;;11.30;6.32;;;2.30;99.90;;;;;;5066916;28;20025;-48
2024/03/07 05:47:41;;;;;;;13.93;6.35;;;2.40;99.90;;;;;;5066985;28;20048;-46
2024/03/07 05:50:10;;;;;;;12.43;5.90;;;2.40;99.90;;;;;;5066936;28;20037;-48
2024/03/07 05:52:36;;;;;;;10.27;6.25;;;2.40;99.90;;;;;;5066860;28;20249;-47
2024/03/07 05:55:03;;;;;;;13.65;6.90;;;2.50;99.90;;;;;;5066258;28;20051;-46
2024/03/07 05:57:29;;;;;;;11.43;6.90;;;2.50;99.90;;;;;;5066758;28;20043;-46
2024/03/07 05:59:56;;;;;;;10.95;6.70;;;2.40;99.90;;;;;;5066604;28;20037;-47
2024/03/07 06:02:22;;;;;;;11.23;6.50;;;2.50;99.90;;;;;;5066279;28;20021;-46
2024/03/07 06:04:47;;;;;;;13.52;6.72;;;2.50;99.90;;;;;;5066265;28;20334;-47
2024/03/07 06:07:13;;;;;;;12.38;7.30;;;2.60;99.90;;;;;;5066705;28;20294;-46
2024/03/07 06:09:39;;;;;;;9.25;6.18;;;2.60;99.90;;;;;;5066668;28;20021;-46
2024/03/07 06:12:08;;;;;;;13.80;7.00;;;2.60;99.90;;;;;;5066075;28;20029;-46
2024/03/07 06:14:33;;;;;;;12.13;6.68;;;2.60;99.90;;;;;;5066550;28;20032;-46
2024/03/07 06:17:00;;;;;;;13.98;7.38;;;2.60;99.90;;;;;;5066452;28;20096;-46
2024/03/07 06:19:26;;;;;;;10.98;6.50;;;2.70;99.90;;;;;;5065983;28;20232;-46
2024/03/07 06:21:53;;;;;;;13.95;7.20;;;2.70;99.90;;;;;;5066414;28;20028;-47
2024/03/07 06:24:21;;;;;;;9.73;6.05;;;2.70;99.90;;;;;;5066213;28;20037;-46
2024/03/07 06:26:49;;;;;;;14.10;8.27;;;2.70;99.90;;;;;;5065627;28;20033;-48
2024/03/07 06:29:17;;;;;;;12.70;7.20;;;2.60;99.90;;;;;;5066027;28;20020;-46
2024/03/07 06:31:43;;;;;;;11.10;6.68;;;2.70;99.90;;;;;;5065850;28;20043;-46
2024/03/07 06:34:09;;;;;;;14.52;7.43;;;2.70;99.90;;;;;;5065990;28;20028;-46
2024/03/07 06:36:35;;;;;;;10.07;6.25;;;2.80;99.90;;;;;;5065432;28;20092;-47
2024/03/07 06:39:01;;;;;;;11.77;7.13;;;2.80;99.90;;;;;;5065971;28;20033;-45
2024/03/07 06:41:26;;;;;;;15.40;8.07;;;2.80;99.90;;;;;;5065895;28;20032;-46
2024/03/07 06:43:55;;;;;;;15.70;7.68;;;2.80;99.90;;;;;;5065380;28;20078;-45
2024/03/07 06:46:20;;;;;;;15.80;7.93;;;2.80;99.90;;;;;;5065624;28;20018;-48
2024/03/07 06:48:46;;;;;;;12.73;7.47;;;2.80;99.90;;;;;;5064766;28;20091;-46
2024/03/07 06:51:12;;;;;;;19.92;10.77;;;2.80;99.90;;;;;;5065495;28;20032;-47
2024/03/07 06:53:39;;;;;;;14.55;8.10;;;2.90;99.90;;;;;;5065633;28;20182;-45
2024/03/07 06:56:06;;;;;;;14.32;8.82;;;3.00;99.90;;;;;;5065484;28;20083;-46
2024/03/07 06:58:32;;;;;;;14.38;9.10;;;2.90;99.90;;;;;;5065570;28;20271;-46
2024/03/07 07:00:59;;;;;;;13.68;7.70;;;2.90;99.90;;;;;;5065435;28;20039;-47
2024/03/07 07:03:24;;;;;;;13.48;7.63;;;2.90;99.90;;;;;;5065186;28;20330;-46
2024/03/07 07:05:50;;;;;;;15.07;7.90;;;2.90;99.90;;;;;;5064381;28;20079;-46
2024/03/07 07:08:16;;;;;;;11.10;7.55;;;2.90;99.90;;;;;;5065399;28;20028;-47
2024/03/07 07:10:42;;;;;;;13.23;7.10;;;2.90;99.90;;;;;;5065607;28;20298;-47
2024/03/07 07:13:08;;;;;;;11.00;6.15;;;2.90;99.90;;;;;;5065357;28;20021;-47
2024/03/07 07:15:34;;;;;;;14.20;7.32;;;2.90;99.90;;;;;;5065002;28;20190;-46
2024/03/07 07:18:02;;;;;;;13.60;8.02;;;3.00;99.90;;;;;;5065110;28;20033;-46
2024/03/07 07:20:27;;;;;;;15.40;7.88;;;3.10;99.90;;;;;;5065485;28;20056;-46
2024/03/07 07:22:53;;;;;;;13.50;8.07;;;3.40;99.90;;;;;;5064435;28;20118;-47
2024/03/07 07:25:20;;;;;;;12.95;8.25;;;3.90;99.90;;;;;;5065508;28;20095;-47
2024/03/07 07:27:49;;;;;;;11.75;7.45;;;4.40;99.90;;;;;;5065317;28;20071;-46
2024/03/07 07:30:16;;;;;;;11.90;7.45;;;4.60;99.90;;;;;;5065228;28;20055;-45
2024/03/07 07:32:42;;;;;;;13.57;7.05;;;4.90;99.90;;;;;;5064861;28;20033;-45
2024/03/07 07:35:11;;;;;;;13.30;7.82;;;5.20;99.90;;;;;;5064934;28;20199;-46
2024/03/07 07:37:55;;;;;;;11.82;6.75;;;5.60;99.90;;;;;;5064837;28;20091;-45
2024/03/07 07:40:22;;;;;;;12.77;6.85;;;6.00;99.90;;;;;;5064924;28;20033;-45
2024/03/07 07:42:52;;;;;;;14.80;8.07;;;6.40;99.90;;;;;;5063862;28;20025;-47
2024/03/07 07:45:18;;;;;;;14.20;9.15;;;6.80;99.90;;;;;;5064507;28;20101;-45
2024/03/07 07:47:45;;;;;;;12.30;8.07;;;7.20;99.90;;;;;;5064707;28;20290;-47
2024/03/07 07:50:13;;;;;;;13.23;8.45;;;7.50;99.90;;;;;;5064580;28;20036;-46
2024/03/07 07:52:56;;;;;;;15.55;9.60;;;7.90;99.90;;;;;;5064965;28;20039;-49
2024/03/07 07:55:25;;;;;;;24.92;16.08;;;8.30;99.90;;;;;;5065027;28;20029;-48
2024/03/07 07:57:55;;;;;;;22.92;13.95;;;8.70;99.90;;;;;;5063779;28;20041;-46
2024/03/07 08:00:22;;;;;;;;;;;9.10;99.90;;;;;;5064908;28;20082;-48
2024/03/07 08:02:57;;;;;;;49.55;25.63;;;9.50;99.90;;;;;;5064447;28;19941;-48
2024/03/07 08:05:24;;;;;;;40.25;24.50;;;9.60;99.90;;;;;;5064261;28;20033;-46
2024/03/07 08:07:54;;;;;;;38.85;22.52;;;9.80;99.90;;;;;;5064591;28;20031;-47
2024/03/07 08:10:29;;;;;;;38.63;24.58;;;10.30;99.90;;;;;;5064717;28;20278;-47
2024/03/07 08:12:55;;;;;;;30.17;20.80;;;10.60;99.90;;;;;;5064862;28;20304;-48
2024/03/07 08:15:21;;;;;;;32.92;20.10;;;11.00;99.90;;;;;;5064822;28;20083;-46
2024/03/07 08:17:47;;;;;;;41.70;25.63;;;11.60;99.90;;;;;;5064115;28;20028;-50
2024/03/07 08:20:17;;;;;;;37.05;24.70;;;12.00;99.90;;;;;;5064477;28;20182;-48
2024/03/07 08:22:43;;;;;;;24.55;16.60;;;12.10;99.90;;;;;;5064644;28;20033;-46
2024/03/07 08:25:13;;;;;;;22.85;16.08;;;12.30;99.90;;;;;;5064018;28;20040;-49
2024/03/07 08:27:41;;;;;;;20.63;14.05;;;12.40;99.90;;;;;;5066111;28;20088;-46
2024/03/07 08:30:07;;;;;;;16.52;10.98;;;13.00;99.90;;;;;;5067965;28;20055;-47
2024/03/07 08:32:36;;;;;;;10.55;7.03;;;13.40;99.90;;;;;;5068239;28;20029;-48
2024/03/07 08:35:08;;;;;;;9.77;7.03;;;13.90;99.90;;;;;;5068213;28;20044;-46
2024/03/07 08:37:38;;;;;;;13.18;7.63;;;14.10;99.90;;;;;;5067900;28;20203;-47
2024/03/07 08:40:06;;;;;;;13.73;8.07;;;14.80;99.90;;;;;;5067727;28;20037;-49
2024/03/07 08:42:35;;;;;;;10.32;6.63;;;15.10;99.90;;;;;;5066804;28;20029;-49
2024/03/07 08:45:04;;;;;;;11.95;6.80;;;15.50;99.90;;;;;;5067790;28;20247;-48
2024/03/07 08:47:30;;;;;;;13.30;6.32;;;15.90;99.90;;;;;;5067494;28;20036;-48
2024/03/07 08:49:56;;;;;;;11.40;6.07;;;15.90;99.90;;;;;;5066411;28;20028;-49
2024/03/07 08:52:22;;;;;;;11.32;6.20;;;16.30;99.90;;;;;;5067552;28;20080;-48
2024/03/07 08:54:48;;;;;;;8.48;5.45;;;16.50;99.90;;;;;;5067386;28;20029;-49
2024/03/07 08:57:16;;;;;;;7.72;4.60;;;16.60;99.90;;;;;;5066629;28;20060;-49
2024/03/07 08:59:43;;;;;;;8.00;4.25;;;16.80;99.90;;;;;;5067094;28;20040;-47
2024/03/07 09:02:10;;;;;;;10.38;4.93;;;16.90;99.90;;;;;;5067065;28;20052;-48
2024/03/07 09:04:36;;;;;;;6.45;3.47;;;17.00;99.90;;;;;;5067588;28;20040;-49
2024/03/07 09:07:02;;;;;;;6.35;4.63;;;17.80;99.90;;;;;;5067255;28;20049;-49
2024/03/07 09:09:27;;;;;;;7.93;4.43;;;17.60;99.90;;;;;;5067118;28;20029;-49
2024/03/07 09:11:53;;;;;;;6.22;4.10;;;17.80;99.90;;;;;;5066917;28;20080;-49
2024/03/07 09:14:19;;;;;;;7.88;4.70;;;17.60;99.90;;;;;;5067140;28;20033;-50
2024/03/07 09:16:44;;;;;;;10.27;5.00;;;17.70;99.90;;;;;;5067226;28;20033;-49
2024/03/07 09:19:13;;;;;;;7.75;4.82;;;18.20;99.90;;;;;;5066362;28;20095;-50
2024/03/07 09:21:40;;;;;;;8.77;4.73;;;18.90;99.90;;;;;;5067026;28;20082;-49
2024/03/07 09:24:07;;;;;;;7.63;4.43;;;18.70;99.90;;;;;;5067424;28;20277;-46
2024/03/07 09:26:33;;;;;;;8.38;4.70;;;19.00;99.90;;;;;;5066458;28;20021;-49
2024/03/07 09:29:05;;;;;;;10.00;5.40;;;18.90;99.90;;;;;;5066714;28;20066;-49
2024/03/07 09:31:33;;;;;;;8.18;5.20;;;19.20;99.90;;;;;;5066630;28;20060;-48
2024/03/07 09:33:59;;;;;;;7.40;5.50;;;18.40;99.90;;;;;;5066595;28;20195;-49
2024/03/07 09:36:25;;;;;;;7.40;4.10;;;17.90;99.90;;;;;;5066397;28;20064;-48
2024/03/07 09:38:51;;;;;;;6.88;5.05;;;17.40;99.90;;;;;;5066353;28;20082;-49
2024/03/07 09:41:17;;;;;;;10.07;5.13;;;17.00;99.90;;;;;;5066660;28;20059;-49
2024/03/07 09:43:48;;;;;;;9.60;4.90;;;17.20;99.90;;;;;;5066561;28;20029;-49
2024/03/07 09:46:14;;;;;;;9.57;5.75;;;17.20;99.90;;;;;;5065286;28;20075;-48
2024/03/07 09:48:40;;;;;;;9.77;4.68;;;17.20;99.90;;;;;;5065311;28;20272;-50
2024/03/07 09:51:07;;;;;;;9.55;4.35;;;18.10;99.90;;;;;;5066564;28;20033;-50
2024/03/07 09:53:33;;;;;;;9.52;5.70;;;17.90;99.90;;;;;;5065778;28;20028;-49
2024/03/07 09:55:59;;;;;;;12.65;6.20;;;18.20;99.90;;;;;;5065217;28;20263;-47
2024/03/07 09:58:25;;;;;;;9.20;5.00;;;18.40;99.90;;;;;;5066121;28;20089;-49
2024/03/07 10:00:50;;;;;;;8.18;4.15;;;18.50;99.90;;;;;;5065999;28;20239;-50
2024/03/07 10:03:17;;;;;;;6.38;3.95;;;16.90;99.90;;;;;;5065087;28;20036;-48
2024/03/07 10:05:42;;;;;;;5.32;3.33;;;17.20;99.90;;;;;;5065446;28;20082;-50
2024/03/07 10:08:08;;;;;;;8.80;4.35;;;17.50;99.90;;;;;;5066268;28;20033;-49
2024/03/07 10:10:34;;;;;;;9.57;4.70;;;17.10;99.90;;;;;;5066367;28;20031;-49
2024/03/07 10:13:00;;;;;;;5.97;4.32;;;16.50;99.90;;;;;;5066182;28;20169;-49
2024/03/07 10:15:32;;;;;;;8.45;3.95;;;15.70;99.90;;;;;;5065795;28;20043;-50
2024/03/07 10:17:58;;;;;;;6.80;3.85;;;15.20;99.90;;;;;;5065407;28;20102;-49
2024/03/07 10:20:24;;;;;;;5.50;3.92;;;15.00;99.90;;;;;;5065978;28;20033;-49
2024/03/07 10:22:50;;;;;;;8.73;4.95;;;15.20;99.90;;;;;;5066023;28;20036;-49
2024/03/07 10:25:21;;;;;;;11.30;4.32;;;15.30;99.90;;;;;;5065896;28;20100;-47
2024/03/07 10:27:49;;;;;;;6.15;3.75;;;16.00;99.90;;;;;;5066031;28;20029;-50
2024/03/07 10:30:20;;;;;;;5.03;3.50;;;15.90;99.90;;;;;;5065970;28;20025;-48
2024/03/07 10:32:47;;;;;;;6.78;4.78;;;16.00;99.90;;;;;;5065833;28;20091;-50
2024/03/07 10:35:14;;;;;;;11.00;5.43;;;15.90;99.90;;;;;;5064380;28;20047;-49
2024/03/07 10:37:40;;;;;;;8.00;5.82;;;15.30;99.90;;;;;;5065159;28;20025;-50
2024/03/07 10:40:15;;;;;;;7.97;4.78;;;15.60;99.90;;;;;;5064244;28;20369;-48
2024/03/07 10:42:51;;;;;;;8.38;5.28;;;16.30;99.90;;;;;;5065002;28;20164;-48
2024/03/07 10:45:19;;;;;;;12.38;6.28;;;15.90;99.90;;;;;;5064498;28;20151;-49
2024/03/07 10:47:49;;;;;;;9.32;5.75;;;16.20;99.90;;;;;;5064932;28;20029;-48
2024/03/07 10:50:53;;;;;;;8.25;5.38;;;15.90;99.90;;;;;;5047764;28;20025;-49
2024/03/07 10:53:30;;;;;;;8.95;4.60;;;16.10;99.90;;;;;;5063871;28;20047;-48
2024/03/07 10:56:21;;;;;;;9.13;5.60;;;16.00;99.90;;;;;;5065213;28;20024;-52
2024/03/07 10:58:51;;;;;;;7.13;4.15;;;15.90;99.90;;;;;;5064350;28;20068;-48
2024/03/07 11:01:16;;;;;;;7.47;4.47;;;15.40;99.90;;;;;;5065037;28;20278;-48
2024/03/07 11:03:42;;;;;;;9.70;5.57;;;15.00;99.90;;;;;;5047422;28;20092;-48
2024/03/07 11:06:11;;;;;;;9.00;4.90;;;14.60;99.90;;;;;;5063670;28;20025;-49
2024/03/07 11:08:37;;;;;;;6.63;3.63;;;14.00;99.90;;;;;;5063868;28;20168;-49
2024/03/07 11:11:02;;;;;;;9.57;5.80;;;13.50;99.90;;;;;;5065056;28;20115;-50
2024/03/07 11:13:29;;;;;;;7.65;4.63;;;13.60;99.90;;;;;;5064895;28;20048;-50
2024/03/07 11:15:57;;;;;;;10.73;7.40;;;13.40;99.90;;;;;;5065037;28;20040;-50
2024/03/07 11:18:24;;;;;;;13.90;7.93;;;13.70;99.90;;;;;;5064150;28;20162;-50
2024/03/07 11:20:49;;;;;;;12.95;7.13;;;13.60;99.90;;;;;;5063791;28;20074;-48
2024/03/07 11:23:26;;;;;;;16.10;9.30;;;13.70;99.90;;;;;;5064617;28;20036;-49
2024/03/07 11:25:54;;;;;;;15.95;9.57;;;13.00;99.90;;;;;;5064682;28;20092;-51
2024/03/07 11:28:20;;;;;;;17.17;10.15;;;12.50;99.90;;;;;;5063475;28;20039;-49
2024/03/07 11:30:46;;;;;;;14.90;9.40;;;12.50;99.90;;;;;;5065100;28;20033;-49
2024/03/07 11:33:14;;;;;;;16.17;8.82;;;12.30;99.90;;;;;;5064769;28;20029;-49
2024/03/07 11:35:40;;;;;;;18.30;9.65;;;11.70;99.90;;;;;;5064620;28;20234;-49
2024/03/07 11:38:08;;;;;;;19.50;10.82;;;11.50;99.90;;;;;;5063738;28;20041;-48
2024/03/07 11:40:34;;;;;;;16.88;10.82;;;11.40;99.90;;;;;;5064617;28;20164;-47
2024/03/07 11:43:04;;;;;;;19.38;11.25;;;11.50;99.90;;;;;;5064717;28;20027;-50
2024/03/07 11:45:32;;;;;;;22.02;10.88;;;11.30;99.90;;;;;;5064383;28;20025;-50
2024/03/07 11:48:09;;;;;;;17.13;10.55;;;11.70;99.90;;;;;;5064009;28;20025;-46
2024/03/07 11:50:38;;;;;;;17.92;10.95;;;11.90;99.90;;;;;;5065286;28;20070;-48
2024/03/07 11:53:08;;;;;;;16.52;10.10;;;11.90;99.90;;;;;;5063488;28;20037;-46
2024/03/07 11:55:43;;;;;;;14.73;9.55;;;11.80;99.90;;;;;;5064508;28;20211;-48
2024/03/07 11:58:21;;;;;;;20.40;10.93;;;12.40;99.90;;;;;;5063459;28;20043;-46
2024/03/07 12:00:47;;;;;;;18.05;10.18;;;12.60;99.90;;;;;;5063796;28;20047;-50
2024/03/07 12:03:23;;;;;;;18.13;10.68;;;12.40;99.90;;;;;;5068287;28;20029;-49
2024/03/07 12:05:49;;;;;;;18.40;10.52;;;12.20;99.90;;;;;;5068248;28;20025;-50
2024/03/07 12:08:14;;;;;;;20.35;11.45;;;12.20;99.90;;;;;;5066912;28;20033;-49
2024/03/07 12:10:44;;;;;;;17.52;11.07;;;12.30;99.90;;;;;;5067751;28;20029;-50
2024/03/07 12:13:15;;;;;;;15.30;7.78;;;12.10;99.90;;;;;;5067999;28;20029;-46
2024/03/07 12:15:41;;;;;;;14.43;7.45;;;11.90;99.90;;;;;;5067379;28;20156;-50
2024/03/07 12:18:09;;;;;;;19.17;8.50;;;11.60;99.90;;;;;;5067076;28;20053;-49
2024/03/07 12:20:39;;;;;;;16.50;8.32;;;11.50;99.90;;;;;;5066647;28;20243;-47
2024/03/07 12:23:07;;;;;;;16.23;9.73;;;11.50;99.90;;;;;;5068045;28;20279;-50
2024/03/07 12:25:34;;;;;;;20.27;10.15;;;11.40;99.90;;;;;;5068053;28;20234;-50
2024/03/07 12:28:10;;;;;;;18.63;9.32;;;11.20;99.90;;;;;;5068084;28;20047;-50
2024/03/07 12:30:54;;;;;;;20.15;10.02;;;11.10;99.90;;;;;;5068088;28;20033;-48
2024/03/07 12:33:21;;;;;;;18.42;10.85;;;11.20;99.90;;;;;;5067203;28;20241;-48
2024/03/07 12:35:47;;;;;;;20.27;10.23;;;11.00;99.90;;;;;;5067774;28;20036;-49
2024/03/07 12:38:15;;;;;;;16.20;9.13;;;11.00;99.90;;;;;;5067907;28;20140;-47
2024/03/07 12:40:46;;;;;;;19.08;10.38;;;11.00;99.90;;;;;;5067995;28;20101;-49
2024/03/07 12:43:16;;;;;;;17.40;10.35;;;10.90;99.90;;;;;;5067478;28;20302;-46